Time;durP1;ratioP1;P1;durP2;ratioP2;P2;SDS_P1;SDS_P2;PMS_P1;PMS_P2;Temp;Humidity;BMP_temperature;BMP_pressure;BME280_temperature;BME280_humidity;BME280_pressure;Samples;Min_cycle;Max_cycle;Signal;HPM_P1;HPM_P2
2023/12/29 00:02:11;;;;;;;15.70;11.70;;;;;;;14.24;55.95;101999.75;107118;1267;25389;-51
2023/12/29 00:04:38;;;;;;;16.40;11.60;;;;;;;14.20;55.99;101996.16;107109;1256;22542;-51
2023/12/29 00:07:05;;;;;;;14.00;10.70;;;;;;;14.19;56.04;101994.61;106890;1268;25391;-50
2023/12/29 00:09:40;;;;;;;15.80;12.50;;;;;;;14.20;55.94;101993.55;107111;1259;567489;-53
2023/12/29 00:12:07;;;;;;;16.90;11.10;;;;;;;14.21;55.93;101990.05;107156;1260;25331;-51
2023/12/29 00:14:39;;;;;;;12.80;11.30;;;;;;;14.21;55.88;101983.05;107173;1253;25394;-51
2023/12/29 00:17:06;;;;;;;15.80;12.20;;;;;;;14.20;55.73;101974.52;107076;1257;25433;-52
2023/12/29 00:19:33;;;;;;;17.30;12.80;;;;;;;14.19;55.71;101965.11;106741;1256;25370;-51
2023/12/29 00:22:02;;;;;;;15.20;12.10;;;;;;;14.19;55.63;101962.66;106809;1258;25444;-51
2023/12/29 00:24:33;;;;;;;16.20;12.60;;;;;;;14.21;55.71;101962.64;107196;1256;25503;-52
2023/12/29 00:27:01;;;;;;;15.40;11.90;;;;;;;14.20;55.60;101961.45;107072;1252;25492;-52
2023/12/29 00:29:32;;;;;;;13.40;11.60;;;;;;;14.18;55.48;101959.89;106755;1258;24335;-50
2023/12/29 00:32:02;;;;;;;13.90;11.10;;;;;;;14.17;55.43;101958.00;107089;1256;25479;-51
2023/12/29 00:34:31;;;;;;;14.80;11.70;;;;;;;14.15;55.42;101959.24;106910;1258;25237;-51
2023/12/29 00:37:00;;;;;;;13.20;11.20;;;;;;;14.13;55.34;101954.39;106562;1263;25345;-51
2023/12/29 00:39:29;;;;;;;13.80;10.80;;;;;;;14.11;55.26;101943.96;106843;1258;25502;-51
2023/12/29 00:41:57;;;;;;;11.60;10.20;;;;;;;14.11;55.28;101940.84;106795;1255;25412;-51
2023/12/29 00:44:24;;;;;;;13.70;9.90;;;;;;;14.08;55.22;101940.00;107045;1256;23902;-50
2023/12/29 00:46:50;;;;;;;11.00;9.90;;;;;;;14.06;55.25;101934.27;107053;1253;22535;-50
2023/12/29 00:49:17;;;;;;;12.40;10.90;;;;;;;14.04;55.24;101926.83;106789;1271;25491;-51
2023/12/29 00:51:45;;;;;;;11.60;10.50;;;;;;;14.02;55.18;101927.38;106980;1267;25338;-51
2023/12/29 00:54:12;;;;;;;12.60;10.50;;;;;;;13.99;55.19;101931.27;106890;1256;25360;-51
2023/12/29 00:56:39;;;;;;;10.30;9.30;;;;;;;13.97;55.12;101933.05;107092;1257;25338;-51
2023/12/29 00:59:07;;;;;;;11.10;9.70;;;;;;;13.93;54.99;101932.94;106760;1259;25401;-51
2023/12/29 01:01:34;;;;;;;10.30;9.30;;;;;;;13.90;54.87;101932.64;106768;1258;23003;-51
2023/12/29 01:04:03;;;;;;;11.10;9.30;;;;;;;13.87;54.87;101929.55;107114;1256;25857;-51
2023/12/29 01:06:30;;;;;;;10.50;9.40;;;;;;;13.84;54.80;101930.11;106848;1259;25290;-51
2023/12/29 01:08:57;;;;;;;12.50;9.20;;;;;;;13.79;54.83;101937.19;107174;1253;24266;-51
2023/12/29 01:11:24;;;;;;;14.10;9.10;;;;;;;13.75;54.83;101935.86;106784;1260;22565;-51
2023/12/29 01:13:51;;;;;;;11.00;8.60;;;;;;;13.70;54.55;101928.09;107101;1257;25418;-51
2023/12/29 01:16:18;;;;;;;9.40;8.40;;;;;;;13.57;54.63;101916.27;107124;1254;25415;-50
2023/12/29 01:18:45;;;;;;;9.80;8.20;;;;;;;13.47;54.64;101902.98;107159;1258;25338;-51
2023/12/29 01:21:12;;;;;;;9.00;8.10;;;;;;;13.42;54.78;101901.68;106849;1267;25426;-51
2023/12/29 01:23:39;;;;;;;10.40;8.40;;;;;;;13.39;54.83;101898.59;106861;1258;25366;-51
2023/12/29 01:26:06;;;;;;;8.80;8.00;;;;;;;13.37;54.76;101896.71;106924;1266;25377;-51
2023/12/29 01:28:34;;;;;;;8.20;7.40;;;;;;;13.33;54.78;101894.14;107031;1256;25370;-51
2023/12/29 01:31:01;;;;;;;10.60;7.40;;;;;;;13.29;54.71;101898.58;106929;1256;25342;-51
2023/12/29 01:33:28;;;;;;;8.70;7.90;;;;;;;13.22;54.68;101897.29;107128;1259;25331;-50
2023/12/29 01:35:55;;;;;;;8.90;8.10;;;;;;;13.13;54.73;101895.85;107194;1258;25379;-51
2023/12/29 01:38:24;;;;;;;8.80;7.90;;;;;;;13.03;54.94;101885.67;106802;1259;22562;-51
2023/12/29 01:40:51;;;;;;;9.60;7.70;;;;;;;12.96;55.17;101877.75;107141;1257;25432;-51
2023/12/29 01:43:18;;;;;;;9.80;8.70;;;;;;;12.92;55.23;101869.27;107191;1258;25930;-51
2023/12/29 01:45:46;;;;;;;9.50;8.60;;;;;;;12.92;55.34;101861.77;107124;1257;25293;-51
2023/12/29 01:48:24;;;;;;;8.60;7.90;;;;;;;12.96;55.42;101856.16;107127;1256;25369;-51
2023/12/29 01:50:51;;;;;;;8.90;8.10;;;;;;;12.99;55.44;101852.98;106973;1263;24228;-51
2023/12/29 01:53:20;;;;;;;9.50;8.60;;;;;;;13.02;55.42;101853.98;106683;1261;25367;-51
2023/12/29 01:55:56;;;;;;;9.80;8.80;;;;;;;13.05;55.45;101851.69;106720;1271;22647;-51
2023/12/29 01:58:25;;;;;;;10.40;8.60;;;;;;;13.07;55.44;101846.45;106710;1267;25335;-50
2023/12/29 02:00:52;;;;;;;12.90;9.00;;;;;;;13.10;55.50;101842.23;106589;1265;25603;-51
2023/12/29 02:03:20;;;;;;;10.30;8.70;;;;;;;13.11;55.45;101838.05;106438;1277;25495;-51
2023/12/29 02:05:47;;;;;;;13.90;10.00;;;;;;;13.12;55.47;101839.95;106367;1262;25536;-51
2023/12/29 02:08:14;;;;;;;11.60;8.30;;;;;;;13.13;55.45;101837.48;106335;1264;25373;-51
2023/12/29 02:10:41;;;;;;;10.60;8.50;;;;;;;13.14;55.45;101836.95;106388;1267;25376;-51
2023/12/29 02:13:08;;;;;;;9.80;8.60;;;;;;;13.14;55.43;101829.98;106386;1265;25535;-51
2023/12/29 02:15:36;;;;;;;9.40;8.40;;;;;;;13.12;55.46;101829.14;106538;1264;25348;-51
2023/12/29 02:18:06;;;;;;;16.30;8.30;;;;;;;13.13;55.40;101821.46;106566;1270;22634;-51
2023/12/29 02:20:33;;;;;;;12.80;8.30;;;;;;;13.14;55.28;101808.91;106554;1259;25402;-51
2023/12/29 02:23:00;;;;;;;18.60;8.00;;;;;;;13.12;55.22;101800.73;106260;1265;25348;-51
2023/12/29 02:25:27;;;;;;;8.90;6.90;;;;;;;13.11;55.22;101791.89;106360;1270;25492;-51
2023/12/29 02:28:02;;;;;;;21.30;7.90;;;;;;;13.08;55.14;101785.11;106255;1276;25380;-51
2023/12/29 02:30:37;;;;;;;23.80;8.10;;;;;;;13.04;55.26;101778.36;106605;1262;22526;-51
2023/12/29 02:33:05;;;;;;;12.90;6.60;;;;;;;13.01;55.29;101779.27;106643;1263;22587;-51
2023/12/29 02:35:36;;;;;;;12.30;7.00;;;;;;;12.99;55.43;101774.95;106672;1260;25376;-51
2023/12/29 02:38:03;;;;;;;8.80;6.20;;;;;;;12.97;55.39;101768.54;106840;1255;22533;-51
2023/12/29 02:40:30;;;;;;;9.30;6.10;;;;;;;12.95;55.53;101766.99;106702;1261;25330;-51
2023/12/29 02:42:58;;;;;;;8.10;6.70;;;;;;;12.93;55.55;101764.93;106677;1268;25538;-51
2023/12/29 02:45:26;;;;;;;8.50;6.20;;;;;;;12.92;55.67;101764.95;106738;1256;25419;-51
2023/12/29 02:47:53;;;;;;;6.90;5.70;;;;;;;12.89;55.69;101773.36;106768;1259;25376;-51
2023/12/29 02:50:20;;;;;;;6.50;5.90;;;;;;;12.87;55.70;101772.17;106471;1275;25498;-51
2023/12/29 02:52:47;;;;;;;6.10;5.50;;;;;;;12.86;55.75;101769.39;106798;1261;24192;-51
2023/12/29 02:55:14;;;;;;;7.00;6.20;;;;;;;12.85;55.70;101765.75;106923;1259;25557;-51
2023/12/29 02:57:44;;;;;;;8.30;5.80;;;;;;;12.84;55.69;101764.20;106828;1257;22524;-51
2023/12/29 03:00:11;;;;;;;7.10;5.90;;;;;;;12.84;55.58;101757.77;107037;1256;25342;-51
2023/12/29 03:02:39;;;;;;;6.80;6.10;;;;;;;12.83;55.52;101758.65;106884;1258;25479;-51
2023/12/29 03:05:06;;;;;;;7.90;6.30;;;;;;;12.81;55.31;101760.07;106288;1274;1002857;-52
2023/12/29 03:07:34;;;;;;;12.00;5.80;;;;;;;12.79;55.13;101759.41;106365;1252;1003737;-51
2023/12/29 03:10:02;;;;;;;5.30;4.80;;;;;;;12.77;54.79;101764.84;106876;1258;25394;-51
2023/12/29 03:12:30;;;;;;;6.80;5.10;;;;;;;12.73;54.55;101768.02;107132;1256;25426;-51
2023/12/29 03:14:57;;;;;;;5.20;4.70;;;;;;;12.70;54.32;101760.06;106877;1257;25419;-51
2023/12/29 03:17:24;;;;;;;4.70;4.30;;;;;;;12.66;54.24;101758.55;107037;1256;25341;-51
2023/12/29 03:19:52;;;;;;;5.00;4.00;;;;;;;12.62;54.17;101760.18;106864;1263;25318;-51
2023/12/29 03:22:21;;;;;;;4.50;4.10;;;;;;;12.58;54.02;101765.98;107133;1262;22527;-51
2023/12/29 03:24:48;;;;;;;8.60;4.20;;;;;;;12.55;53.93;101766.20;107108;1256;25340;-51
2023/12/29 03:27:15;;;;;;;4.20;3.80;;;;;;;12.51;54.04;101761.39;107100;1259;25331;-51
2023/12/29 03:29:42;;;;;;;7.70;4.30;;;;;;;12.47;53.91;101758.46;107108;1257;25481;-51
2023/12/29 03:32:09;;;;;;;5.90;3.70;;;;;;;12.44;53.73;101755.39;107239;1256;22530;-51
2023/12/29 03:34:36;;;;;;;8.80;4.20;;;;;;;12.39;53.67;101754.76;106919;1267;25491;-51
2023/12/29 03:37:04;;;;;;;4.10;3.80;;;;;;;12.35;53.63;101759.15;107115;1256;25331;-52
2023/12/29 03:39:33;;;;;;;4.30;3.90;;;;;;;12.32;53.67;101761.64;107047;1255;23085;-51
2023/12/29 03:42:00;;;;;;;4.80;4.10;;;;;;;12.28;53.68;101757.15;107122;1255;25498;-51
2023/12/29 03:44:27;;;;;;;5.00;4.50;;;;;;;12.25;53.85;101749.37;107057;1265;25328;-51
2023/12/29 03:46:54;;;;;;;4.90;4.40;;;;;;;12.24;53.96;101748.02;107210;1256;25331;-51
2023/12/29 03:49:21;;;;;;;5.90;5.10;;;;;;;12.21;53.83;101750.29;106854;1259;25418;-51
2023/12/29 03:51:49;;;;;;;5.60;4.10;;;;;;;12.18;53.78;101752.41;106857;1259;25366;-52
2023/12/29 03:54:18;;;;;;;5.40;4.90;;;;;;;12.16;53.78;101758.20;106393;1265;1002427;-52
2023/12/29 03:56:46;;;;;;;8.10;4.90;;;;;;;12.13;53.69;101766.23;106814;1259;22527;-51
2023/12/29 03:59:13;;;;;;;4.90;4.20;;;;;;;12.00;53.33;101776.29;107177;1260;25467;-51
2023/12/29 04:01:40;;;;;;;4.90;4.40;;;;;;;11.76;53.41;101786.99;106759;1265;25398;-51
2023/12/29 04:04:08;;;;;;;6.60;3.50;;;;;;;11.56;53.78;101785.60;107040;1256;25354;-52
2023/12/29 04:06:35;;;;;;;3.60;3.10;;;;;;;11.41;54.35;101781.39;107187;1265;25342;-52
2023/12/29 04:09:02;;;;;;;4.20;3.00;;;;;;;11.34;54.90;101781.09;107125;1256;23290;-52
2023/12/29 04:11:29;;;;;;;4.70;3.10;;;;;;;11.30;55.21;101788.77;107077;1258;25328;-51
2023/12/29 04:13:56;;;;;;;4.90;3.70;;;;;;;11.25;55.40;101793.49;107085;1256;25485;-51
2023/12/29 04:16:23;;;;;;;4.70;3.10;;;;;;;11.18;55.79;101792.86;106849;1262;24243;-52
2023/12/29 04:18:50;;;;;;;4.20;3.80;;;;;;;11.10;56.35;101790.31;106085;1259;1003424;-52
2023/12/29 04:21:19;;;;;;;7.20;4.10;;;;;;;11.04;56.95;101786.38;106694;1274;25795;-52
2023/12/29 04:23:46;;;;;;;3.80;3.50;;;;;;;11.06;57.46;101787.92;106109;1261;1003334;-52
2023/12/29 04:26:13;;;;;;;3.20;2.90;;;;;;;11.09;57.69;101788.08;106742;1259;25363;-52
2023/12/29 04:28:42;;;;;;;3.20;2.60;;;;;;;11.10;57.72;101793.27;106729;1259;25512;-51
2023/12/29 04:31:09;;;;;;;3.30;3.00;;;;;;;11.07;57.58;101796.95;106753;1262;25331;-51
2023/12/29 04:33:36;;;;;;;3.80;3.40;;;;;;;11.05;57.52;101800.96;106866;1262;25332;-52
2023/12/29 04:36:04;;;;;;;11.10;3.40;;;;;;;11.05;57.32;101802.00;106591;1270;25346;-52
2023/12/29 04:38:30;;;;;;;5.60;3.30;;;;;;;11.04;57.24;101803.39;106800;1269;22530;-51
2023/12/29 04:40:57;;;;;;;5.20;3.80;;;;;;;11.02;57.22;101803.76;106747;1258;25341;-51
2023/12/29 04:43:24;;;;;;;4.10;3.70;;;;;;;11.01;57.32;101806.36;106800;1259;25382;-52
2023/12/29 04:45:52;;;;;;;8.60;3.90;;;;;;;11.01;57.31;101808.63;106721;1261;25327;-51
2023/12/29 04:48:19;;;;;;;9.40;4.60;;;;;;;10.98;57.35;101806.38;106849;1260;25540;-52
2023/12/29 04:50:45;;;;;;;8.10;4.70;;;;;;;10.95;57.31;101797.71;107091;1268;25328;-51
2023/12/29 04:53:12;;;;;;;3.90;3.50;;;;;;;10.95;57.40;101798.06;107156;1256;25367;-52
2023/12/29 04:55:39;;;;;;;5.00;3.70;;;;;;;10.99;57.35;101793.35;106130;1268;1003634;-52
2023/12/29 04:58:07;;;;;;;4.70;4.20;;;;;;;11.04;57.22;101784.64;107175;1256;25360;-52
2023/12/29 05:00:34;;;;;;;3.80;3.50;;;;;;;11.11;56.99;101783.02;107070;1252;25428;-52
2023/12/29 05:03:01;;;;;;;4.30;2.90;;;;;;;11.14;56.69;101771.88;106790;1265;25338;-52
2023/12/29 05:05:28;;;;;;;3.90;2.70;;;;;;;11.18;56.42;101770.63;106767;1271;25434;-52
2023/12/29 05:07:55;;;;;;;3.60;2.50;;;;;;;11.21;56.11;101773.57;106395;1259;1003551;-52
2023/12/29 05:10:23;;;;;;;5.80;2.80;;;;;;;11.23;55.78;101774.25;106783;1260;25341;-52
2023/12/29 05:12:50;;;;;;;5.00;2.60;;;;;;;11.23;55.37;101779.62;107142;1257;25318;-52
2023/12/29 05:15:17;;;;;;;3.30;3.00;;;;;;;11.23;55.25;101786.57;106900;1261;25331;-52
2023/12/29 05:17:44;;;;;;;3.80;2.80;;;;;;;11.23;55.13;101791.96;106725;1259;25342;-53
2023/12/29 05:20:11;;;;;;;3.40;2.90;;;;;;;11.23;54.93;101788.48;106830;1260;25282;-52
2023/12/29 05:22:39;;;;;;;6.70;2.80;;;;;;;11.23;54.68;101795.09;107062;1266;25339;-51
2023/12/29 05:25:07;;;;;;;3.30;3.00;;;;;;;11.23;54.57;101792.30;106827;1268;22518;-52
2023/12/29 05:27:34;;;;;;;3.60;3.20;;;;;;;11.22;54.49;101796.83;106022;1261;1003627;-52
2023/12/29 05:30:03;;;;;;;3.20;2.80;;;;;;;11.17;54.34;101798.25;107153;1256;25331;-51
2023/12/29 05:32:30;;;;;;;6.20;2.70;;;;;;;11.10;54.60;101800.04;107105;1254;25792;-52
2023/12/29 05:34:57;;;;;;;6.50;3.50;;;;;;;11.04;54.57;101802.36;106940;1260;25324;-52
2023/12/29 05:37:24;;;;;;;3.70;3.30;;;;;;;11.00;54.88;101802.56;107125;1256;25341;-52
2023/12/29 05:39:51;;;;;;;4.10;3.70;;;;;;;10.99;55.11;101804.64;107028;1256;23346;-51
2023/12/29 05:42:18;;;;;;;5.80;3.70;;;;;;;10.99;55.16;101805.68;107015;1265;25408;-51
2023/12/29 05:44:45;;;;;;;4.10;3.60;;;;;;;11.01;55.30;101802.55;106475;1256;1003452;-51
2023/12/29 05:47:12;;;;;;;5.70;3.70;;;;;;;11.00;55.30;101800.48;106908;1258;25341;-52
2023/12/29 05:49:39;;;;;;;5.90;3.30;;;;;;;11.00;55.36;101799.42;107019;1256;25472;-51
2023/12/29 05:52:07;;;;;;;3.50;3.20;;;;;;;10.99;55.30;101794.74;106825;1259;25341;-51
2023/12/29 05:54:34;;;;;;;4.00;3.60;;;;;;;11.00;55.31;101795.77;107106;1267;25418;-53
2023/12/29 05:57:02;;;;;;;3.30;3.00;;;;;;;11.02;55.24;101801.14;106761;1267;25366;-53
2023/12/29 05:59:29;;;;;;;3.40;2.80;;;;;;;11.05;55.03;101803.04;107167;1266;25407;-53
2023/12/29 06:01:56;;;;;;;3.10;2.80;;;;;;;11.06;54.67;101809.63;107060;1254;25338;-53
2023/12/29 06:04:23;;;;;;;4.30;3.20;;;;;;;11.03;54.52;101803.92;106887;1273;25489;-53
2023/12/29 06:06:50;;;;;;;3.40;2.90;;;;;;;10.97;54.34;101807.95;107111;1263;25353;-53
2023/12/29 06:09:18;;;;;;;3.40;2.70;;;;;;;10.89;54.23;101807.13;107173;1259;24178;-52
2023/12/29 06:11:45;;;;;;;3.30;3.00;;;;;;;10.76;54.22;101802.36;107070;1256;25392;-53
2023/12/29 06:14:12;;;;;;;3.20;2.90;;;;;;;10.67;54.58;101803.61;106818;1254;25530;-53
2023/12/29 06:16:39;;;;;;;3.20;2.90;;;;;;;10.63;54.77;101803.64;107123;1270;25367;-53
2023/12/29 06:19:06;;;;;;;3.40;3.10;;;;;;;10.60;54.75;101790.65;106841;1262;25460;-51
2023/12/29 06:21:33;;;;;;;3.70;3.40;;;;;;;10.59;55.02;101781.81;107038;1256;24208;-51
2023/12/29 06:24:00;;;;;;;4.30;3.90;;;;;;;10.61;55.15;101776.08;107128;1259;25408;-51
2023/12/29 06:26:27;;;;;;;5.40;4.00;;;;;;;10.65;55.15;101772.05;107152;1259;25346;-51
2023/12/29 06:28:54;;;;;;;5.10;4.10;;;;;;;10.69;55.12;101775.32;106262;1265;1002915;-52
2023/12/29 06:31:21;;;;;;;4.10;3.70;;;;;;;10.73;55.10;101769.92;106908;1259;25342;-52
2023/12/29 06:33:48;;;;;;;4.90;4.20;;;;;;;10.75;54.87;101778.23;107119;1259;25332;-51
2023/12/29 06:36:16;;;;;;;4.90;4.40;;;;;;;10.77;54.84;101784.13;107112;1256;25375;-52
2023/12/29 06:38:48;;;;;;;4.80;4.30;;;;;;;10.80;54.94;101782.38;107162;1256;22668;-52
2023/12/29 06:41:15;;;;;;;5.10;4.60;;;;;;;10.82;54.83;101778.19;107047;1267;25443;-52
2023/12/29 06:43:42;;;;;;;5.90;5.30;;;;;;;10.81;54.89;101779.94;107067;1266;25488;-52
2023/12/29 06:46:09;;;;;;;5.50;5.00;;;;;;;10.83;55.04;101784.44;107026;1257;25367;-52
2023/12/29 06:48:37;;;;;;;7.30;6.00;;;;;;;10.86;55.07;101787.54;107261;1256;25332;-52
2023/12/29 06:51:04;;;;;;;7.30;6.50;;;;;;;10.91;55.19;101802.61;107111;1259;25370;-52
2023/12/29 06:53:32;;;;;;;7.50;6.00;;;;;;;10.93;55.20;101806.40;106958;1258;25342;-51
2023/12/29 06:55:59;;;;;;;7.80;6.40;;;;;;;10.94;55.19;101810.39;107183;1256;25338;-51
2023/12/29 06:58:25;;;;;;;9.80;6.70;;;;;;;10.94;55.27;101809.52;107189;1256;22526;-52
2023/12/29 07:00:53;;;;;;;9.70;7.60;;;;;;;10.93;55.39;101811.45;107027;1253;25182;-51
2023/12/29 07:03:20;;;;;;;12.50;6.70;;;;;;;10.92;55.47;101811.97;107181;1255;25367;-52
2023/12/29 07:05:47;;;;;;;11.80;7.30;;;;;;;10.90;55.42;101809.55;107137;1259;25561;-51
2023/12/29 07:08:14;;;;;;;7.60;6.80;;;;;;;10.85;55.51;101808.55;106979;1266;25370;-51
2023/12/29 07:10:41;;;;;;;10.70;8.30;;;;;;;10.82;55.67;101808.23;106826;1261;23458;-52
2023/12/29 07:13:09;;;;;;;10.50;9.40;;;;;;;10.78;55.81;101800.44;107089;1257;25331;-52
2023/12/29 07:15:36;;;;;;;14.30;10.30;;;;;;;10.77;55.94;101798.36;106307;1269;1003253;-51
2023/12/29 07:18:03;;;;;;;11.40;9.80;;;;;;;10.74;56.00;101794.56;107094;1260;25370;-51
2023/12/29 07:20:31;;;;;;;11.50;9.40;;;;;;;10.73;56.38;101795.95;106807;1270;24219;-51
2023/12/29 07:22:59;;;;;;;10.40;8.40;;;;;;;10.75;56.65;101792.13;106918;1260;25342;-52
2023/12/29 07:25:26;;;;;;;9.30;7.70;;;;;;;10.82;56.60;101794.67;106883;1262;25343;-51
2023/12/29 07:27:53;;;;;;;8.80;7.60;;;;;;;10.84;56.29;101795.35;106807;1269;25456;-51
2023/12/29 07:30:20;;;;;;;8.00;7.20;;;;;;;10.78;56.25;101798.52;106770;1272;25418;-51
2023/12/29 07:32:47;;;;;;;8.70;7.50;;;;;;;10.71;56.07;101807.59;107170;1269;25366;-51
2023/12/29 07:35:19;;;;;;;8.90;8.00;;;;;;;10.61;56.10;101815.98;107205;1256;22611;-52
2023/12/29 07:37:46;;;;;;;;;;;;;;;10.58;56.38;101810.09;107203;1255;25316;-51
2023/12/29 07:40:13;;;;;;;8.10;7.30;;;;;;;10.57;56.40;101810.27;107070;1257;25321;-51
2023/12/29 07:42:41;;;;;;;11.40;8.00;;;;;;;10.58;56.43;101814.10;107132;1260;25405;-51
2023/12/29 07:45:09;;;;;;;9.70;8.50;;;;;;;10.57;56.24;101819.65;107003;1267;25331;-52
2023/12/29 07:47:36;;;;;;;8.00;7.20;;;;;;;10.58;56.39;101823.45;107132;1260;25408;-51
2023/12/29 07:50:05;;;;;;;8.50;7.60;;;;;;;10.59;55.93;101827.27;107113;1256;25331;-51
2023/12/29 07:52:32;;;;;;;9.00;7.40;;;;;;;10.54;55.75;101824.34;107087;1256;22546;-51
2023/12/29 07:54:59;;;;;;;12.50;8.00;;;;;;;10.49;55.60;101824.02;107106;1253;25328;-51
2023/12/29 07:57:27;;;;;;;9.30;7.10;;;;;;;10.42;55.73;101830.11;107092;1263;25339;-50
2023/12/29 07:59:54;;;;;;;8.50;7.70;;;;;;;10.43;55.94;101837.39;107088;1252;25448;-50
2023/12/29 08:02:21;;;;;;;9.00;8.10;;;;;;;10.45;56.05;101836.17;107137;1256;25415;-51
2023/12/29 08:04:48;;;;;;;9.30;7.60;;;;;;;10.48;56.06;101844.48;106759;1257;25365;-51
2023/12/29 08:07:15;;;;;;;7.50;6.70;;;;;;;10.51;55.93;101848.81;107027;1263;25407;-51
2023/12/29 08:09:44;;;;;;;13.70;6.80;;;;;;;10.56;55.88;101853.13;107060;1256;25366;-52
2023/12/29 08:12:11;;;;;;;8.90;7.30;;;;;;;10.58;55.80;101852.77;107139;1261;25359;-51
2023/12/29 08:14:38;;;;;;;7.90;7.00;;;;;;;10.57;55.43;101860.94;107110;1264;24388;-51
2023/12/29 08:17:04;;;;;;;8.30;7.30;;;;;;;10.47;55.14;101864.95;107197;1265;25348;-52
2023/12/29 08:19:31;;;;;;;7.90;7.10;;;;;;;10.35;55.25;101871.42;106952;1268;25400;-52
2023/12/29 08:21:59;;;;;;;9.30;7.80;;;;;;;10.26;55.19;101872.14;107089;1253;23308;-52
2023/12/29 08:24:26;;;;;;;8.60;7.70;;;;;;;10.17;55.48;101871.48;106280;1256;1002978;-53
2023/12/29 08:26:53;;;;;;;8.90;8.00;;;;;;;10.13;55.61;101866.98;107103;1255;25360;-52
2023/12/29 08:29:20;;;;;;;11.10;9.50;;;;;;;10.10;55.68;101868.52;107035;1260;25350;-52
2023/12/29 08:31:47;;;;;;;11.40;10.20;;;;;;;10.06;55.96;101873.54;106454;1262;1002830;-52
2023/12/29 08:34:15;;;;;;;11.00;9.10;;;;;;;10.06;56.25;101872.32;107122;1256;25341;-52
2023/12/29 08:36:42;;;;;;;10.90;9.80;;;;;;;10.07;56.22;101872.84;106352;1262;1003405;-52
2023/12/29 08:39:09;;;;;;;11.70;10.00;;;;;;;10.06;56.04;101869.39;107078;1267;25402;-52
2023/12/29 08:41:36;;;;;;;11.70;10.00;;;;;;;10.01;56.24;101862.63;106403;1263;1003179;-52
2023/12/29 08:44:03;;;;;;;11.20;9.60;;;;;;;9.99;56.47;101860.73;107169;1260;25527;-52
2023/12/29 08:46:31;;;;;;;10.70;9.10;;;;;;;10.01;56.63;101859.67;106292;1266;1002938;-52
2023/12/29 08:48:58;;;;;;;11.30;7.70;;;;;;;10.07;56.72;101862.79;106896;1273;25353;-52
2023/12/29 08:51:25;;;;;;;7.50;6.80;;;;;;;10.04;56.15;101858.98;107041;1265;25418;-52
2023/12/29 08:53:52;;;;;;;7.90;7.10;;;;;;;9.90;56.20;101853.64;107145;1259;25342;-51
2023/12/29 08:56:18;;;;;;;10.50;7.50;;;;;;;9.76;56.13;101846.38;107075;1269;25367;-51
2023/12/29 08:58:46;;;;;;;9.00;8.10;;;;;;;9.66;56.43;101849.67;107054;1257;25325;-51
2023/12/29 09:01:13;;;;;;;7.20;6.50;;;;;;;9.59;56.74;101847.59;107169;1267;25356;-52
2023/12/29 09:03:40;;;;;;;6.80;6.10;;;;;;;9.55;56.64;101853.15;107140;1267;25430;-51
2023/12/29 09:06:08;;;;;;;6.90;6.10;;;;;;;9.53;57.19;101858.34;106700;1260;25448;-51
2023/12/29 09:08:35;;;;;;;6.60;6.00;;;;;;;9.54;56.95;101854.89;107091;1257;25506;-51
2023/12/29 09:11:02;;;;;;;7.00;6.40;;;;;;;9.49;56.39;101847.25;106977;1264;25486;-51
2023/12/29 09:13:30;;;;;;;8.60;7.30;;;;;;;9.37;56.41;101839.64;106794;1272;25418;-51
2023/12/29 09:15:57;;;;;;;8.40;7.60;;;;;;;9.27;56.55;101841.88;106780;1271;22646;-50
2023/12/29 09:18:24;;;;;;;8.10;7.40;;;;;;;9.21;57.12;101837.55;107087;1264;25561;-51
2023/12/29 09:20:51;;;;;;;7.90;6.50;;;;;;;9.22;57.52;101839.45;107211;1261;25367;-51
2023/12/29 09:23:18;;;;;;;7.20;6.50;;;;;;;9.25;57.91;101835.30;107204;1259;25418;-51
2023/12/29 09:25:45;;;;;;;9.30;8.30;;;;;;;9.30;57.92;101834.10;107041;1259;25341;-51
2023/12/29 09:28:13;;;;;;;7.60;6.80;;;;;;;9.33;57.83;101825.27;107130;1265;25408;-51
2023/12/29 09:30:39;;;;;;;8.30;7.50;;;;;;;9.35;57.97;101823.19;107066;1256;25486;-51
2023/12/29 09:33:07;;;;;;;8.30;7.40;;;;;;;9.37;57.89;101819.55;107096;1254;25331;-51
2023/12/29 09:35:34;;;;;;;7.60;6.90;;;;;;;9.38;57.65;101818.70;106997;1262;25514;-52
2023/12/29 09:38:04;;;;;;;8.70;7.70;;;;;;;9.35;57.58;101811.92;107116;1267;22526;-51
2023/12/29 09:40:32;;;;;;;8.20;7.40;;;;;;;9.34;57.89;101809.33;106863;1259;22642;-51
2023/12/29 09:42:59;;;;;;;8.20;7.40;;;;;;;9.33;57.82;101808.81;107107;1260;25450;-51
2023/12/29 09:45:26;;;;;;;8.00;7.20;;;;;;;9.32;58.05;101811.58;106797;1268;25360;-51
2023/12/29 09:47:53;;;;;;;7.80;6.80;;;;;;;9.32;58.39;101809.16;107055;1272;25497;-50
2023/12/29 09:50:20;;;;;;;8.50;7.20;;;;;;;9.36;58.41;101805.86;106780;1269;25328;-50
2023/12/29 09:52:48;;;;;;;9.30;7.70;;;;;;;9.40;58.58;101803.61;107118;1266;25418;-51
2023/12/29 09:55:15;;;;;;;8.50;7.60;;;;;;;9.45;58.58;101802.06;107110;1264;25336;-50
2023/12/29 09:57:43;;;;;;;8.20;7.30;;;;;;;9.51;58.57;101806.20;106745;1270;25411;-51
2023/12/29 10:00:11;;;;;;;7.70;6.90;;;;;;;9.55;58.28;101802.55;107105;1260;25367;-51
2023/12/29 10:02:38;;;;;;;10.60;8.20;;;;;;;9.60;58.53;101804.64;106870;1261;22534;-51
2023/12/29 10:05:07;;;;;;;8.70;7.80;;;;;;;9.71;58.74;101797.17;107161;1268;25342;-51
2023/12/29 10:07:38;;;;;;;9.50;8.30;;;;;;;9.81;58.56;101800.27;107092;1257;22528;-52
2023/12/29 10:10:06;;;;;;;9.80;8.80;;;;;;;9.91;58.40;101799.73;107047;1268;22647;-50
2023/12/29 10:12:33;;;;;;;9.50;8.20;;;;;;;9.98;58.40;101798.16;106809;1269;24228;-51
2023/12/29 10:15:04;;;;;;;9.60;8.60;;;;;;;10.07;58.35;101800.38;106866;1264;25384;-51
2023/12/29 10:17:59;;;;;;;10.60;9.50;;;;;;;10.18;58.22;101801.93;106800;1270;25331;-51
2023/12/29 10:20:47;;;;;;;10.50;9.00;;;;;;;10.27;57.84;101800.69;107026;1267;24229;-50
2023/12/29 10:23:20;;;;;;;11.20;9.90;;;;;;;10.28;57.34;101797.91;107059;1265;25373;-51
2023/12/29 10:25:48;;;;;;;11.90;10.40;;;;;;;10.27;57.35;101786.12;106939;1260;22525;-51
2023/12/29 10:28:16;;;;;;;11.90;10.70;;;;;;;10.27;56.93;101786.98;106808;1271;25404;-51
2023/12/29 10:30:43;;;;;;;11.40;9.80;;;;;;;10.23;56.85;101787.35;106696;1273;25345;-51
2023/12/29 10:33:10;;;;;;;13.60;11.40;;;;;;;10.18;56.85;101784.42;106857;1260;25402;-52
2023/12/29 10:35:39;;;;;;;14.80;11.60;;;;;;;10.12;56.86;101782.71;106544;1276;25360;-51
2023/12/29 10:38:12;;;;;;;16.90;11.30;;;;;;;10.13;57.03;101781.85;105991;1267;1003293;-51
2023/12/29 10:40:40;;;;;;;13.10;11.30;;;;;;;10.18;57.21;101783.73;106901;1263;25336;-51
2023/12/29 10:43:09;;;;;;;12.90;11.50;;;;;;;10.22;57.31;101783.19;106842;1258;25346;-51
2023/12/29 10:45:36;;;;;;;13.30;11.90;;;;;;;10.30;57.16;101786.63;106542;1266;22530;-50
2023/12/29 10:48:04;;;;;;;12.70;11.20;;;;;;;10.35;56.87;101791.11;106768;1260;25485;-51
2023/12/29 10:50:31;;;;;;;13.80;12.30;;;;;;;10.37;56.63;101791.45;106780;1266;23209;-51
2023/12/29 10:53:14;;;;;;;14.70;11.90;;;;;;;10.38;56.45;101784.17;106695;1262;22534;-50
2023/12/29 10:55:41;;;;;;;14.70;12.40;;;;;;;10.40;56.38;101781.20;106047;1260;1002904;-51
2023/12/29 10:58:08;;;;;;;13.40;12.00;;;;;;;10.40;56.16;101776.17;106763;1256;22608;-51
2023/12/29 11:00:35;;;;;;;13.50;12.00;;;;;;;10.42;56.44;101779.83;106736;1267;25513;-51
2023/12/29 11:03:03;;;;;;;13.40;11.60;;;;;;;10.44;56.26;101774.25;106935;1268;25335;-50
2023/12/29 11:05:31;;;;;;;13.60;12.20;;;;;;;10.42;55.81;101779.98;107065;1257;24342;-50
2023/12/29 11:07:59;;;;;;;14.40;12.90;;;;;;;10.33;55.56;101784.20;107075;1257;25418;-50
2023/12/29 11:10:26;;;;;;;12.90;11.60;;;;;;;10.25;56.06;101788.73;107114;1254;22594;-51
2023/12/29 11:12:54;;;;;;;14.90;12.10;;;;;;;10.23;56.00;101796.20;107165;1257;25419;-50
2023/12/29 11:15:21;;;;;;;14.00;12.60;;;;;;;10.18;56.04;101793.96;106961;1266;25350;-51
2023/12/29 11:17:52;;;;;;;15.30;13.00;;;;;;;10.11;55.99;101790.34;106918;1260;25344;-50